Aviation Digital Data Service (ADDS)

Output produced by METARs form (0257 UTC 22 April 2019)
found at http://www.aviationweather.gov/metar/data/
 
METAR text: RKSO 220158Z 00000KT 7SM CLR 22/11 A2999 RMK AO2A SLP159
Conditions at: RKSO (OSAN (US/KOR-AFB, KR) observed 0158 UTC 22 April 2019
Temperature: 22.0°C (72°F)
Dewpoint: 11.0°C (52°F) [RH = 50%]
Pressure (altimeter): 29.99 inches Hg (1015.7 mb)
[Sea-level pressure: 1015.9 mb]
Winds: calm
Visibility: 7 miles (11 km)
Ceiling: at least 12,000 feet AGL
Clouds: sky clear below 12,000 feet AGL
Weather: no significant weather observed at this time

METAR text: RKSO 220058Z 07005KT 6SM HZ CLR 20/10 A3000 RMK AO2A SLP162
Conditions at: RKSO (OSAN (US/KOR-AFB, KR) observed 0058 UTC 22 April 2019
Temperature: 20.0°C (68°F)
Dewpoint: 10.0°C (50°F) [RH = 53%]
Pressure (altimeter): 30.00 inches Hg (1016.0 mb)
[Sea-level pressure: 1016.2 mb]
Winds: from the ENE (70 degrees) at 6 MPH (5 knots; 2.6 m/s)
Visibility: 6 miles (10 km)
Ceiling: at least 12,000 feet AGL
Clouds: sky clear below 12,000 feet AGL
Weather: HZ  (haze)

METAR text: RKSO 212358Z 00000KT 5SM HZ CLR 16/11 A3000 RMK AO2A SLP162 51007
Conditions at: RKSO (OSAN (US/KOR-AFB, KR) observed 2358 UTC 21 April 2019
Temperature: 16.0°C (61°F)
Dewpoint: 11.0°C (52°F) [RH = 72%]
Pressure (altimeter): 30.00 inches Hg (1016.0 mb)
[Sea-level pressure: 1016.2 mb]
Winds: calm
Visibility: 5 miles ( 8 km)
Ceiling: at least 12,000 feet AGL
Clouds: sky clear below 12,000 feet AGL
Weather: HZ  (haze)

METAR text: RKSO 212258Z 08003KT 3SM BR CLR 13/11 A2999 RMK AO2A SLP159
Conditions at: RKSO (OSAN (US/KOR-AFB, KR) observed 2258 UTC 21 April 2019
Temperature: 13.0°C (55°F)
Dewpoint: 11.0°C (52°F) [RH = 88%]
Pressure (altimeter): 29.99 inches Hg (1015.7 mb)
[Sea-level pressure: 1015.9 mb]
Winds: from the E (80 degrees) at 3 MPH (3 knots; 1.5 m/s)
Visibility: 3 miles ( 5 km)
Ceiling: at least 12,000 feet AGL
Clouds: sky clear below 12,000 feet AGL
Weather: BR  (mist)

METAR text: RKSO 212158Z 09003KT 2 1/4SM BR CLR 10/10 A2999 RMK AO2A SLP159 $
Conditions at: RKSO (OSAN (US/KOR-AFB, KR) observed 2158 UTC 21 April 2019
Temperature: 10.0°C (50°F)
Dewpoint: 10.0°C (50°F) [RH = 100%]
Pressure (altimeter): 29.99 inches Hg (1015.7 mb)
[Sea-level pressure: 1015.9 mb]
Winds: from the E (90 degrees) at 3 MPH (3 knots; 1.5 m/s)
Visibility: 2.25 miles (3.62 km)
Ceiling: at least 12,000 feet AGL
Clouds: sky clear below 12,000 feet AGL
Weather: BR  (mist)
SOME DATA ABOVE MAY BE INACCURATE!!!
"$" is an indication the sensor requires maintenance

METAR text: RKSO 212058Z 11003KT 2SM BR FEW200 08/08 A2998 RMK AO2A SLP155 53002
Conditions at: RKSO (OSAN (US/KOR-AFB, KR) observed 2058 UTC 21 April 2019
Temperature: 8.0°C (46°F)
Dewpoint: 8.0°C (46°F) [RH = 100%]
Pressure (altimeter): 29.98 inches Hg (1015.3 mb)
[Sea-level pressure: 1015.5 mb]
Winds: from the ESE (110 degrees) at 3 MPH (3 knots; 1.5 m/s)
Visibility: 2.00 miles (3.22 km)
Ceiling: at least 12,000 feet AGL
Clouds: few clouds at 20000 feet AGL
Weather: BR  (mist)

METAR text: RKSO 212043Z 12004KT 2SM BR FEW200 08/08 A2998 RMK AO2A SLP155
Conditions at: RKSO (OSAN (US/KOR-AFB, KR) observed 2043 UTC 21 April 2019
Temperature: 8.0°C (46°F)
Dewpoint: 8.0°C (46°F) [RH = 100%]
Pressure (altimeter): 29.98 inches Hg (1015.3 mb)
[Sea-level pressure: 1015.5 mb]
Winds: from the ESE (120 degrees) at 5 MPH (4 knots; 2.1 m/s)
Visibility: 2.00 miles (3.22 km)
Ceiling: at least 12,000 feet AGL
Clouds: few clouds at 20000 feet AGL
Weather: BR  (mist)

METAR text: RKSO 211958Z 10003KT 4SM BR FEW200 08/08 A2996 RMK AO2A SLP149
Conditions at: RKSO (OSAN (US/KOR-AFB, KR) observed 1958 UTC 21 April 2019
Temperature: 8.0°C (46°F)
Dewpoint: 8.0°C (46°F) [RH = 100%]
Pressure (altimeter): 29.96 inches Hg (1014.6 mb)
[Sea-level pressure: 1014.9 mb]
Winds: from the E (100 degrees) at 3 MPH (3 knots; 1.5 m/s)
Visibility: 4 miles ( 6 km)
Ceiling: at least 12,000 feet AGL
Clouds: few clouds at 20000 feet AGL
Weather: BR  (mist)

METAR text: RKSO 211858Z 00000KT 4SM BR FEW200 09/09 A2996 RMK AO2A SLP149
Conditions at: RKSO (OSAN (US/KOR-AFB, KR) observed 1858 UTC 21 April 2019
Temperature: 9.0°C (48°F)
Dewpoint: 9.0°C (48°F) [RH = 100%]
Pressure (altimeter): 29.96 inches Hg (1014.6 mb)
[Sea-level pressure: 1014.9 mb]
Winds: calm
Visibility: 4 miles ( 6 km)
Ceiling: at least 12,000 feet AGL
Clouds: few clouds at 20000 feet AGL
Weather: BR  (mist)

METAR text: RKSO 211758Z 00000KT 5SM BR FEW200 09/09 A2997 RMK AO2A SLP152 56001
Conditions at: RKSO (OSAN (US/KOR-AFB, KR) observed 1758 UTC 21 April 2019
Temperature: 9.0°C (48°F)
Dewpoint: 9.0°C (48°F) [RH = 100%]
Pressure (altimeter): 29.97 inches Hg (1015.0 mb)
[Sea-level pressure: 1015.2 mb]
Winds: calm
Visibility: 5 miles ( 8 km)
Ceiling: at least 12,000 feet AGL
Clouds: few clouds at 20000 feet AGL
Weather: BR  (mist)

METAR text: RKSO 211658Z 00000KT 5SM BR FEW200 11/10 A2997 RMK AO2A SLP152
Conditions at: RKSO (OSAN (US/KOR-AFB, KR) observed 1658 UTC 21 April 2019
Temperature: 11.0°C (52°F)
Dewpoint: 10.0°C (50°F) [RH = 94%]
Pressure (altimeter): 29.97 inches Hg (1015.0 mb)
[Sea-level pressure: 1015.2 mb]
Winds: calm
Visibility: 5 miles ( 8 km)
Ceiling: at least 12,000 feet AGL
Clouds: few clouds at 20000 feet AGL
Weather: BR  (mist)

METAR text: RKSO 211558Z 00000KT 5SM BR BKN200 12/11 A2997 RMK AO2A SLP152
Conditions at: RKSO (OSAN (US/KOR-AFB, KR) observed 1558 UTC 21 April 2019
Temperature: 12.0°C (54°F)
Dewpoint: 11.0°C (52°F) [RH = 94%]
Pressure (altimeter): 29.97 inches Hg (1015.0 mb)
[Sea-level pressure: 1015.2 mb]
Winds: calm
Visibility: 5 miles ( 8 km)
Ceiling: 20000 feet AGL
Clouds: broken clouds at 20000 feet AGL
Weather: BR  (mist)

METAR text: RKSO 211458Z 00000KT 7SM BKN200 12/10 A2997 RMK AO2A SLP152 52011
Conditions at: RKSO (OSAN (US/KOR-AFB, KR) observed 1458 UTC 21 April 2019
Temperature: 12.0°C (54°F)
Dewpoint: 10.0°C (50°F) [RH = 88%]
Pressure (altimeter): 29.97 inches Hg (1015.0 mb)
[Sea-level pressure: 1015.2 mb]
Winds: calm
Visibility: 7 miles (11 km)
Ceiling: 20000 feet AGL
Clouds: broken clouds at 20000 feet AGL
Weather: no significant weather observed at this time

METAR text: RKSO 211358Z 00000KT 7SM BKN200 13/10 A2996 RMK AO2A SLP149
Conditions at: RKSO (OSAN (US/KOR-AFB, KR) observed 1358 UTC 21 April 2019
Temperature: 13.0°C (55°F)
Dewpoint: 10.0°C (50°F) [RH = 82%]
Pressure (altimeter): 29.96 inches Hg (1014.6 mb)
[Sea-level pressure: 1014.9 mb]
Winds: calm
Visibility: 7 miles (11 km)
Ceiling: 20000 feet AGL
Clouds: broken clouds at 20000 feet AGL
Weather: no significant weather observed at this time

METAR text: RKSO 211258Z 00000KT 7SM FEW200 13/09 A2995 RMK AO2A SLP145
Conditions at: RKSO (OSAN (US/KOR-AFB, KR) observed 1258 UTC 21 April 2019
Temperature: 13.0°C (55°F)
Dewpoint: 9.0°C (48°F) [RH = 77%]
Pressure (altimeter): 29.95 inches Hg (1014.3 mb)
[Sea-level pressure: 1014.5 mb]
Winds: calm
Visibility: 7 miles (11 km)
Ceiling: at least 12,000 feet AGL
Clouds: few clouds at 20000 feet AGL
Weather: no significant weather observed at this time

METAR text: RKSO 211158Z 27003KT 7SM SCT200 14/10 A2994 RMK AO2A SLP142 52015
Conditions at: RKSO (OSAN (US/KOR-AFB, KR) observed 1158 UTC 21 April 2019
Temperature: 14.0°C (57°F)
Dewpoint: 10.0°C (50°F) [RH = 77%]
Pressure (altimeter): 29.94 inches Hg (1014.0 mb)
[Sea-level pressure: 1014.2 mb]
Winds: from the W (270 degrees) at 3 MPH (3 knots; 1.5 m/s)
Visibility: 7 miles (11 km)
Ceiling: at least 12,000 feet AGL
Clouds: scattered clouds at 20000 feet AGL
Weather: no significant weather observed at this time

METAR text: RKSO 211058Z 29003KT 7SM BKN200 15/10 A2991 RMK AO2A SLP132
Conditions at: RKSO (OSAN (US/KOR-AFB, KR) observed 1058 UTC 21 April 2019
Temperature: 15.0°C (59°F)
Dewpoint: 10.0°C (50°F) [RH = 72%]
Pressure (altimeter): 29.91 inches Hg (1013.0 mb)
[Sea-level pressure: 1013.2 mb]
Winds: from the WNW (290 degrees) at 3 MPH (3 knots; 1.5 m/s)
Visibility: 7 miles (11 km)
Ceiling: 20000 feet AGL
Clouds: broken clouds at 20000 feet AGL
Weather: no significant weather observed at this time

METAR text: RKSO 210958Z 27005KT 7SM FEW200 17/10 A2991 RMK AO2A SLP132
Conditions at: RKSO (OSAN (US/KOR-AFB, KR) observed 0958 UTC 21 April 2019
Temperature: 17.0°C (63°F)
Dewpoint: 10.0°C (50°F) [RH = 63%]
Pressure (altimeter): 29.91 inches Hg (1013.0 mb)
[Sea-level pressure: 1013.2 mb]
Winds: from the W (270 degrees) at 6 MPH (5 knots; 2.6 m/s)
Visibility: 7 miles (11 km)
Ceiling: at least 12,000 feet AGL
Clouds: few clouds at 20000 feet AGL
Weather: no significant weather observed at this time

METAR text: RKSO 210858Z 27007KT 7SM SCT200 19/08 A2989 RMK AO2A SLP125 55002
Conditions at: RKSO (OSAN (US/KOR-AFB, KR) observed 0858 UTC 21 April 2019
Temperature: 19.0°C (66°F)
Dewpoint: 8.0°C (46°F) [RH = 49%]
Pressure (altimeter): 29.89 inches Hg (1012.3 mb)
[Sea-level pressure: 1012.5 mb]
Winds: from the W (270 degrees) at 8 MPH (7 knots; 3.6 m/s)
Visibility: 7 miles (11 km)
Ceiling: at least 12,000 feet AGL
Clouds: scattered clouds at 20000 feet AGL
Weather: no significant weather observed at this time

METAR text: RKSO 210758Z 24005KT 7SM SCT200 20/09 A2988 RMK AO2A SLP121
Conditions at: RKSO (OSAN (US/KOR-AFB, KR) observed 0758 UTC 21 April 2019
Temperature: 20.0°C (68°F)
Dewpoint: 9.0°C (48°F) [RH = 49%]
Pressure (altimeter): 29.88 inches Hg (1011.9 mb)
[Sea-level pressure: 1012.1 mb]
Winds: from the WSW (240 degrees) at 6 MPH (5 knots; 2.6 m/s)
Visibility: 7 miles (11 km)
Ceiling: at least 12,000 feet AGL
Clouds: scattered clouds at 20000 feet AGL
Weather: no significant weather observed at this time

METAR text: RKSO 210658Z 21004KT 7SM FEW090 SCT200 19/11 A2989 RMK AO2A SLP125
Conditions at: RKSO (OSAN (US/KOR-AFB, KR) observed 0658 UTC 21 April 2019
Temperature: 19.0°C (66°F)
Dewpoint: 11.0°C (52°F) [RH = 60%]
Pressure (altimeter): 29.89 inches Hg (1012.3 mb)
[Sea-level pressure: 1012.5 mb]
Winds: from the SSW (210 degrees) at 5 MPH (4 knots; 2.1 m/s)
Visibility: 7 miles (11 km)
Ceiling: at least 12,000 feet AGL
Clouds: few clouds at 9000 feet AGL
scattered clouds at 20000 feet AGL
Weather: no significant weather observed at this time

METAR text: RKSO 210558Z 35004KT 6SM HZ SCT022 BKN090 BKN200 18/12 A2990 RMK AO2A SLP128 57012
Conditions at: RKSO (OSAN (US/KOR-AFB, KR) observed 0558 UTC 21 April 2019
Temperature: 18.0°C (64°F)
Dewpoint: 12.0°C (54°F) [RH = 68%]
Pressure (altimeter): 29.90 inches Hg (1012.6 mb)
[Sea-level pressure: 1012.8 mb]
Winds: from the N (350 degrees) at 5 MPH (4 knots; 2.1 m/s)
Visibility: 6 miles (10 km)
Ceiling: 9000 feet AGL
Clouds: scattered clouds at 2200 feet AGL
broken clouds at 9000 feet AGL
broken clouds at 20000 feet AGL
Weather: HZ  (haze)

METAR text: RKSO 210538Z 33004KT 6SM HZ SCT020 BKN090 17/12 A2992 RMK AO2A SLP135
Conditions at: RKSO (OSAN (US/KOR-AFB, KR) observed 0538 UTC 21 April 2019
Temperature: 17.0°C (63°F)
Dewpoint: 12.0°C (54°F) [RH = 72%]
Pressure (altimeter): 29.92 inches Hg (1013.3 mb)
[Sea-level pressure: 1013.5 mb]
Winds: from the NNW (330 degrees) at 5 MPH (4 knots; 2.1 m/s)
Visibility: 6 miles (10 km)
Ceiling: 9000 feet AGL
Clouds: scattered clouds at 2000 feet AGL
broken clouds at 9000 feet AGL
Weather: HZ  (haze)

METAR text: RKSO 210458Z 28003KT 5SM HZ FEW008 BKN016 17/12 A2992 RMK AO2A SLP135
Conditions at: RKSO (OSAN (US/KOR-AFB, KR) observed 0458 UTC 21 April 2019
Temperature: 17.0°C (63°F)
Dewpoint: 12.0°C (54°F) [RH = 72%]
Pressure (altimeter): 29.92 inches Hg (1013.3 mb)
[Sea-level pressure: 1013.5 mb]
Winds: from the W (280 degrees) at 3 MPH (3 knots; 1.5 m/s)
Visibility: 5 miles ( 8 km)
Ceiling: 1600 feet AGL
Clouds: few clouds at 800 feet AGL
broken clouds at 1600 feet AGL
Weather: HZ  (haze)

METAR text: RKSO 210358Z 31004KT 4SM BR SCT008 OVC014 16/13 A2992 RMK AO2A SLP135
Conditions at: RKSO (OSAN (US/KOR-AFB, KR) observed 0358 UTC 21 April 2019
Temperature: 16.0°C (61°F)
Dewpoint: 13.0°C (55°F) [RH = 82%]
Pressure (altimeter): 29.92 inches Hg (1013.3 mb)
[Sea-level pressure: 1013.5 mb]
Winds: from the NW (310 degrees) at 5 MPH (4 knots; 2.1 m/s)
Visibility: 4 miles ( 6 km)
Ceiling: 1400 feet AGL
Clouds: scattered clouds at 800 feet AGL
overcast cloud deck at 1400 feet AGL
Weather: BR  (mist)

METAR text: RKSO 210338Z 28004KT 3SM BR SCT009 OVC013 15/13 A2992 RMK AO2A SLP135
Conditions at: RKSO (OSAN (US/KOR-AFB, KR) observed 0338 UTC 21 April 2019
Temperature: 15.0°C (59°F)
Dewpoint: 13.0°C (55°F) [RH = 88%]
Pressure (altimeter): 29.92 inches Hg (1013.3 mb)
[Sea-level pressure: 1013.5 mb]
Winds: from the W (280 degrees) at 5 MPH (4 knots; 2.1 m/s)
Visibility: 3 miles ( 5 km)
Ceiling: 1300 feet AGL
Clouds: scattered clouds at 900 feet AGL
overcast cloud deck at 1300 feet AGL
Weather: BR  (mist)

METAR text: RKSO 210258Z 32004KT 2 3/4SM BR OVC009 15/13 A2994 RMK AO2A SLP142 50002
Conditions at: RKSO (OSAN (US/KOR-AFB, KR) observed 0258 UTC 21 April 2019
Temperature: 15.0°C (59°F)
Dewpoint: 13.0°C (55°F) [RH = 88%]
Pressure (altimeter): 29.94 inches Hg (1014.0 mb)
[Sea-level pressure: 1014.2 mb]
Winds: from the NW (320 degrees) at 5 MPH (4 knots; 2.1 m/s)
Visibility: 2.75 miles (4.43 km)
Ceiling: 900 feet AGL
Clouds: overcast cloud deck at 900 feet AGL
Weather: BR  (mist)

METAR text: RKSO 210158Z 27003KT 2 1/2SM BR OVC009 15/13 A2995 RMK AO2A SLP145
Conditions at: RKSO (OSAN (US/KOR-AFB, KR) observed 0158 UTC 21 April 2019
Temperature: 15.0°C (59°F)
Dewpoint: 13.0°C (55°F) [RH = 88%]
Pressure (altimeter): 29.95 inches Hg (1014.3 mb)
[Sea-level pressure: 1014.5 mb]
Winds: from the W (270 degrees) at 3 MPH (3 knots; 1.5 m/s)
Visibility: 2.50 miles (4.02 km)
Ceiling: 900 feet AGL
Clouds: overcast cloud deck at 900 feet AGL
Weather: BR  (mist)

METAR text: RKSO 210058Z 25004KT 2 1/4SM BR OVC006 14/13 A2994 RMK AO2A SLP142
Conditions at: RKSO (OSAN (US/KOR-AFB, KR) observed 0058 UTC 21 April 2019
Temperature: 14.0°C (57°F)
Dewpoint: 13.0°C (55°F) [RH = 94%]
Pressure (altimeter): 29.94 inches Hg (1014.0 mb)
[Sea-level pressure: 1014.2 mb]
Winds: from the WSW (250 degrees) at 5 MPH (4 knots; 2.1 m/s)
Visibility: 2.25 miles (3.62 km)
Ceiling: 600 feet AGL
Clouds: overcast cloud deck at 600 feet AGL
Weather: BR  (mist)

METAR text: RKSO 202358Z 23004KT 2 1/4SM BR OVC006 13/13 A2993 RMK AO2A SLP138 60000 52007
Conditions at: RKSO (OSAN (US/KOR-AFB, KR) observed 2358 UTC 20 April 2019
Temperature: 13.0°C (55°F)
Dewpoint: 13.0°C (55°F) [RH = 100%]
Pressure (altimeter): 29.93 inches Hg (1013.6 mb)
[Sea-level pressure: 1013.8 mb]
Winds: from the SW (230 degrees) at 5 MPH (4 knots; 2.1 m/s)
Visibility: 2.25 miles (3.62 km)
Ceiling: 600 feet AGL
Clouds: overcast cloud deck at 600 feet AGL
Weather: BR  (mist)

METAR text: RKSO 202258Z 20004KT 2 1/2SM BR BKN006 OVC014 13/13 A2992 RMK AO2A DZE2212 CIG 006V015 BKN V SCT SLP135
Conditions at: RKSO (OSAN (US/KOR-AFB, KR) observed 2258 UTC 20 April 2019
Temperature: 13.0°C (55°F)
Dewpoint: 13.0°C (55°F) [RH = 100%]
Pressure (altimeter): 29.92 inches Hg (1013.3 mb)
[Sea-level pressure: 1013.5 mb]
Winds: from the SSW (200 degrees) at 5 MPH (4 knots; 2.1 m/s)
Visibility: 2.50 miles (4.02 km)
Ceiling: 600 feet AGL
Clouds: broken clouds at 600 feet AGL
overcast cloud deck at 1400 feet AGL
Weather: BR  (mist)

METAR text: RKSO 202232Z 00000KT 2SM BR FEW004 OVC017 13/13 A2992 RMK AO2A DZE2212 OVC V BKN CIG 005 RWY09 SLP135 $
Conditions at: RKSO (OSAN (US/KOR-AFB, KR) observed 2232 UTC 20 April 2019
Temperature: 13.0°C (55°F)
Dewpoint: 13.0°C (55°F) [RH = 100%]
Pressure (altimeter): 29.92 inches Hg (1013.3 mb)
[Sea-level pressure: 1013.5 mb]
Winds: calm
Visibility: 2.00 miles (3.22 km)
Ceiling: 1700 feet AGL
Clouds: few clouds at 400 feet AGL
overcast cloud deck at 1700 feet AGL
Weather: BR  (mist)
SOME DATA ABOVE MAY BE INACCURATE!!!
"$" is an indication the sensor requires maintenance

METAR text: RKSO 202212Z 25003KT 2 1/4SM BR BKN006 BKN016 OVC029 13/13 A2992 RMK DZE2212 SLP135
Conditions at: RKSO (OSAN (US/KOR-AFB, KR) observed 2212 UTC 20 April 2019
Temperature: 13.0°C (55°F)
Dewpoint: 13.0°C (55°F) [RH = 100%]
Pressure (altimeter): 29.92 inches Hg (1013.3 mb)
[Sea-level pressure: 1013.5 mb]
Winds: from the WSW (250 degrees) at 3 MPH (3 knots; 1.5 m/s)
Visibility: 2.25 miles (3.62 km)
Ceiling: 600 feet AGL
Clouds: broken clouds at 600 feet AGL
broken clouds at 1600 feet AGL
overcast cloud deck at 2900 feet AGL
Weather: BR  (mist)

METAR text: RKSO 202158Z 00000KT 2SM -DZ BR BKN005 OVC016 13/13 A2992 RMK AO2A DZB12 BKN V OVC SLP135 P0000
Conditions at: RKSO (OSAN (US/KOR-AFB, KR) observed 2158 UTC 20 April 2019
Temperature: 13.0°C (55°F)
Dewpoint: 13.0°C (55°F) [RH = 100%]
Pressure (altimeter): 29.92 inches Hg (1013.3 mb)
[Sea-level pressure: 1013.5 mb]
Winds: calm
Visibility: 2.00 miles (3.22 km)
Ceiling: 500 feet AGL
Clouds: broken clouds at 500 feet AGL
overcast cloud deck at 1600 feet AGL
Weather: -DZ BR  (light drizzle, mist)

METAR text: RKSO 202116Z COR 31003KT 2SM -DZ BR BKN004 OVC010 13/12 A2992 RMK AO2A RAB12 SLP135 $ COR 2117
Conditions at: RKSO (OSAN (US/KOR-AFB, KR) observed 2116 UTC 20 April 2019
Temperature: 13.0°C (55°F)
Dewpoint: 12.0°C (54°F) [RH = 94%]
Pressure (altimeter): 29.92 inches Hg (1013.3 mb)
[Sea-level pressure: 1013.5 mb]
Winds: from the NW (310 degrees) at 3 MPH (3 knots; 1.5 m/s)
Visibility: 2.00 miles (3.22 km)
Ceiling: 400 feet AGL
Clouds: broken clouds at 400 feet AGL
overcast cloud deck at 1000 feet AGL
Weather: -DZ BR  (light drizzle, mist)
SOME DATA ABOVE MAY BE INACCURATE!!!
"$" is an indication the sensor requires maintenance

METAR text: RKSO 202058Z 30005KT 2SM BR BKN005 OVC015 13/12 A2991 RMK AO2A SLP132 60000 58000
Conditions at: RKSO (OSAN (US/KOR-AFB, KR) observed 2058 UTC 20 April 2019
Temperature: 13.0°C (55°F)
Dewpoint: 12.0°C (54°F) [RH = 94%]
Pressure (altimeter): 29.91 inches Hg (1013.0 mb)
[Sea-level pressure: 1013.2 mb]
Winds: from the WNW (300 degrees) at 6 MPH (5 knots; 2.6 m/s)
Visibility: 2.00 miles (3.22 km)
Ceiling: 500 feet AGL
Clouds: broken clouds at 500 feet AGL
overcast cloud deck at 1500 feet AGL
Weather: BR  (mist)

METAR text: RKSO 202020Z 29003KT 3SM BR OVC005 13/13 A2991 RMK SLP132
Conditions at: RKSO (OSAN (US/KOR-AFB, KR) observed 2020 UTC 20 April 2019
Temperature: 13.0°C (55°F)
Dewpoint: 13.0°C (55°F) [RH = 100%]
Pressure (altimeter): 29.91 inches Hg (1013.0 mb)
[Sea-level pressure: 1013.2 mb]
Winds: from the WNW (290 degrees) at 3 MPH (3 knots; 1.5 m/s)
Visibility: 3 miles ( 5 km)
Ceiling: 500 feet AGL
Clouds: overcast cloud deck at 500 feet AGL
Weather: BR  (mist)

METAR text: RKSO 201958Z 28005KT 2SM BR OVC005 13/13 A2991 RMK AO2A RAE22 SLP132 P0000
Conditions at: RKSO (OSAN (US/KOR-AFB, KR) observed 1958 UTC 20 April 2019
Temperature: 13.0°C (55°F)
Dewpoint: 13.0°C (55°F) [RH = 100%]
Pressure (altimeter): 29.91 inches Hg (1013.0 mb)
[Sea-level pressure: 1013.2 mb]
Winds: from the W (280 degrees) at 6 MPH (5 knots; 2.6 m/s)
Visibility: 2.00 miles (3.22 km)
Ceiling: 500 feet AGL
Clouds: overcast cloud deck at 500 feet AGL
Weather: BR  (mist)

METAR text: RKSO 201913Z 27003KT 1 1/2SM -RA BR OVC007 13/13 A2991 RMK SLP132
Conditions at: RKSO (OSAN (US/KOR-AFB, KR) observed 1913 UTC 20 April 2019
Temperature: 13.0°C (55°F)
Dewpoint: 13.0°C (55°F) [RH = 100%]
Pressure (altimeter): 29.91 inches Hg (1013.0 mb)
[Sea-level pressure: 1013.2 mb]
Winds: from the W (270 degrees) at 3 MPH (3 knots; 1.5 m/s)
Visibility: 1.50 miles (2.41 km)
Ceiling: 700 feet AGL
Clouds: overcast cloud deck at 700 feet AGL
Weather: -RA BR  (light rain, mist)

METAR text: RKSO 201858Z 27003KT 2SM -RA BR OVC008 13/13 A2991 RMK AO2A RAB57 SLP132 P0000
Conditions at: RKSO (OSAN (US/KOR-AFB, KR) observed 1858 UTC 20 April 2019
Temperature: 13.0°C (55°F)
Dewpoint: 13.0°C (55°F) [RH = 100%]
Pressure (altimeter): 29.91 inches Hg (1013.0 mb)
[Sea-level pressure: 1013.2 mb]
Winds: from the W (270 degrees) at 3 MPH (3 knots; 1.5 m/s)
Visibility: 2.00 miles (3.22 km)
Ceiling: 800 feet AGL
Clouds: overcast cloud deck at 800 feet AGL
Weather: -RA BR  (light rain, mist)

METAR text: RKSO 201758Z 31004KT 2SM BR OVC007 13/13 A2991 RMK AO2A SLP132 60000 58007
Conditions at: RKSO (OSAN (US/KOR-AFB, KR) observed 1758 UTC 20 April 2019
Temperature: 13.0°C (55°F)
Dewpoint: 13.0°C (55°F) [RH = 100%]
Pressure (altimeter): 29.91 inches Hg (1013.0 mb)
[Sea-level pressure: 1013.2 mb]
Winds: from the NW (310 degrees) at 5 MPH (4 knots; 2.1 m/s)
Visibility: 2.00 miles (3.22 km)
Ceiling: 700 feet AGL
Clouds: overcast cloud deck at 700 feet AGL
Weather: BR  (mist)

METAR text: RKSO 201658Z 00000KT 1 3/4SM BR OVC008 14/13 A2992 RMK AO2A DZE1558 SLP135
Conditions at: RKSO (OSAN (US/KOR-AFB, KR) observed 1658 UTC 20 April 2019
Temperature: 14.0°C (57°F)
Dewpoint: 13.0°C (55°F) [RH = 94%]
Pressure (altimeter): 29.92 inches Hg (1013.3 mb)
[Sea-level pressure: 1013.5 mb]
Winds: calm
Visibility: 1.75 miles (2.82 km)
Ceiling: 800 feet AGL
Clouds: overcast cloud deck at 800 feet AGL
Weather: BR  (mist)

METAR text: RKSO 201558Z 27003KT 2 1/2SM -DZ BR OVC012 14/13 A2994 RMK AO2A SLP142
Conditions at: RKSO (OSAN (US/KOR-AFB, KR) observed 1558 UTC 20 April 2019
Temperature: 14.0°C (57°F)
Dewpoint: 13.0°C (55°F) [RH = 94%]
Pressure (altimeter): 29.94 inches Hg (1014.0 mb)
[Sea-level pressure: 1014.2 mb]
Winds: from the W (270 degrees) at 3 MPH (3 knots; 1.5 m/s)
Visibility: 2.50 miles (4.02 km)
Ceiling: 1200 feet AGL
Clouds: overcast cloud deck at 1200 feet AGL
Weather: -DZ BR  (light drizzle, mist)

METAR text: RKSO 201458Z COR 00000KT 3SM BR BKN015 OVC022 14/12 A2994 RMK AO2A BKN V OVC SLP142 60000 57006 COR 1510
Conditions at: RKSO (OSAN (US/KOR-AFB, KR) observed 1458 UTC 20 April 2019
Temperature: 14.0°C (57°F)
Dewpoint: 12.0°C (54°F) [RH = 88%]
Pressure (altimeter): 29.94 inches Hg (1014.0 mb)
[Sea-level pressure: 1014.2 mb]
Winds: calm
Visibility: 3 miles ( 5 km)
Ceiling: 1500 feet AGL
Clouds: broken clouds at 1500 feet AGL
overcast cloud deck at 2200 feet AGL
Weather: BR  (mist)

Forecast for: AMD
Text: TAF AMD RKSO 212310Z 2123/2301 VRB06KT 4800 BR SKC QNH2995INS
Forecast period: 2300 UTC 21 April 2019 to 0100 UTC 22 April 2019
Forecast type: FROM: standard forecast or significant change
Winds: variable direction winds at 7 MPH (6 knots; 3.1 m/s)
Visibility: 2.98 miles (4.80 km)
Clouds: clear skies
Weather: BR  (mist)
Text: BECMG 2201/2203 VRB06KT 8000 BR FEW015 SCT033 QNH3000INS
Forecast period: 0100 UTC 22 April 2019 to 0100 UTC 23 April 2019
Forecast type: BECOMING: Conditions expected to become as follows by 0300 UTC 22 April 2019
Winds: variable direction winds at 7 MPH (6 knots; 3.1 m/s)
Visibility: 5 miles (8 km)
Ceiling: at least 12,000 feet AGL
Clouds: few clouds at 1500 feet AGL
scattered clouds at 3300 feet AGL
Weather: BR  (mist)
Text: TEMPO 2212/2219 BKN050 TX19/2206Z TN09/2219Z
Forecast period: 1200 to 1900 UTC 22 April 2019
Forecast type: TEMPORARY: The following changes expected for less than half the time period
Visibility: missing
Ceiling: 5000 feet AGL
Clouds: broken clouds at 5000 feet AGL
Weather: no significant weather forecast for this period